createdAt,value
2018-10-03T00:00:11.741Z,12.96
2018-10-03T00:02:46.368Z,12.98
2018-10-03T00:05:20.920Z,12.94
2018-10-03T00:07:55.558Z,12.97
2018-10-03T00:10:30.036Z,12.92
2018-10-03T00:13:04.611Z,13.00
2018-10-03T00:15:39.185Z,12.95
2018-10-03T00:18:13.917Z,12.94
2018-10-03T00:20:48.504Z,12.96
2018-10-03T00:23:22.961Z,12.94
2018-10-03T00:25:57.467Z,12.92
2018-10-03T00:28:31.959Z,12.85
2018-10-03T00:31:07.289Z,12.92
2018-10-03T00:36:41.857Z,12.85
2018-10-03T00:39:16.468Z,12.82
2018-10-03T00:41:51.031Z,12.87
2018-10-03T00:50:24.390Z,12.79
2018-10-03T00:52:58.836Z,12.73
2018-10-03T00:55:33.256Z,12.85
2018-10-03T00:58:07.834Z,12.79
2018-10-03T01:00:42.451Z,12.72
2018-10-03T01:03:16.922Z,12.80
2018-10-03T01:05:51.604Z,12.71
2018-10-03T01:08:26.149Z,12.78
2018-10-03T01:11:00.681Z,12.82
2018-10-03T01:13:35.313Z,12.63
2018-10-03T01:16:10.153Z,12.75
2018-10-03T01:18:44.900Z,12.62
2018-10-03T01:21:19.487Z,12.63
2018-10-03T01:23:53.900Z,12.55
2018-10-03T01:26:28.385Z,12.49
2018-10-03T01:29:02.966Z,12.49
2018-10-03T01:31:40.740Z,12.36
2018-10-03T01:34:15.208Z,12.51
2018-10-03T01:36:49.602Z,12.50
2018-10-03T01:39:24.021Z,12.50
2018-10-03T01:41:58.614Z,12.52
2018-10-03T01:44:33.153Z,12.63
2018-10-03T01:47:07.724Z,12.48
2018-10-03T01:49:42.304Z,12.36
2018-10-03T01:52:16.737Z,12.31
2018-10-03T01:54:51.352Z,12.31
2018-10-03T01:57:25.821Z,12.41
2018-10-03T02:00:00.452Z,12.41
2018-10-03T02:02:34.857Z,12.37
2018-10-03T02:05:09.192Z,12.27
2018-10-03T02:07:43.689Z,12.32
2018-10-03T02:10:42.033Z,12.34
2018-10-03T02:16:22.755Z,12.37
2018-10-03T02:18:57.246Z,12.43
2018-10-03T02:21:31.909Z,12.38
2018-10-03T02:24:06.288Z,12.33
2018-10-03T02:26:40.988Z,12.31
2018-10-03T02:35:14.172Z,12.23
2018-10-03T02:37:48.943Z,12.31
2018-10-03T02:40:23.534Z,12.31
2018-10-03T02:42:57.998Z,12.24
2018-10-03T02:45:32.592Z,12.29
2018-10-03T02:48:07.380Z,12.21
2018-10-03T02:50:42.029Z,12.18
2018-10-03T02:53:33.551Z,12.10
2018-10-03T02:56:08.184Z,12.07
2018-10-03T02:58:43.256Z,12.13
2018-10-03T03:01:17.956Z,12.18
2018-10-03T03:03:52.840Z,12.17
2018-10-03T03:06:27.573Z,12.18
2018-10-03T03:09:02.548Z,12.21
2018-10-03T03:11:36.930Z,12.16
2018-10-03T03:14:11.313Z,12.16
2018-10-03T03:16:45.795Z,12.19
2018-10-03T03:19:20.607Z,12.27
2018-10-03T03:21:54.932Z,12.25
2018-10-03T03:24:29.733Z,12.33
2018-10-03T03:27:04.228Z,12.30
2018-10-03T03:29:38.862Z,12.39
2018-10-03T03:32:13.391Z,12.50
2018-10-03T03:34:48.401Z,12.52
2018-10-03T03:37:23.192Z,12.54
2018-10-03T03:39:57.740Z,12.60
2018-10-03T03:42:32.319Z,12.68
2018-10-03T03:45:06.989Z,12.61
2018-10-03T03:47:41.801Z,12.64
2018-10-03T03:50:16.372Z,12.67
2018-10-03T03:52:50.836Z,12.67
2018-10-03T03:55:25.185Z,12.64
2018-10-03T03:57:59.699Z,12.63
2018-10-03T04:00:34.061Z,12.57
2018-10-03T04:03:08.472Z,12.61
2018-10-03T04:05:42.952Z,12.58
2018-10-03T04:08:17.411Z,12.60
2018-10-03T04:10:51.824Z,12.56
2018-10-03T04:13:26.360Z,12.40
2018-10-03T04:16:01.320Z,12.49
2018-10-03T04:18:36.165Z,12.43
2018-10-03T04:21:11.096Z,12.46
2018-10-03T04:23:45.510Z,12.39
2018-10-03T04:26:20.101Z,12.42
2018-10-03T04:28:54.548Z,12.49
2018-10-03T04:31:29.161Z,12.42
2018-10-03T04:34:04.449Z,12.59
2018-10-03T04:36:39.172Z,12.51
2018-10-03T04:39:13.787Z,12.61
2018-10-03T04:41:48.231Z,12.67
2018-10-03T04:44:22.926Z,12.70
2018-10-03T04:46:57.397Z,12.68
2018-10-03T04:49:31.980Z,12.78
2018-10-03T04:52:06.474Z,12.60
2018-10-03T04:54:41.170Z,12.74
2018-10-03T04:57:15.705Z,12.72
2018-10-03T04:59:50.284Z,12.74
2018-10-03T05:02:24.932Z,12.68
2018-10-03T05:05:01.426Z,12.68
2018-10-03T05:07:48.136Z,12.69
2018-10-03T05:10:22.658Z,12.68
2018-10-03T05:12:57.138Z,12.71
2018-10-03T05:15:31.653Z,12.74
2018-10-03T05:18:06.270Z,12.65
2018-10-03T05:20:40.824Z,12.52
2018-10-03T05:23:15.908Z,12.39
2018-10-03T05:26:07.278Z,12.34
2018-10-03T05:28:42.017Z,12.23
2018-10-03T05:31:16.481Z,12.26
2018-10-03T05:33:50.885Z,12.21
2018-10-03T05:36:25.409Z,12.20
2018-10-03T05:38:59.829Z,12.21
2018-10-03T05:41:34.224Z,11.97
2018-10-03T05:44:12.444Z,12.16
2018-10-03T05:46:46.988Z,12.14
2018-10-03T05:49:21.549Z,12.19
2018-10-03T05:51:56.151Z,12.22
2018-10-03T05:54:30.914Z,12.09
2018-10-03T05:57:05.845Z,12.10
2018-10-03T05:59:40.480Z,12.00
2018-10-03T06:02:15.645Z,11.95
2018-10-03T06:04:50.041Z,11.98
2018-10-03T06:07:24.590Z,11.87
2018-10-03T06:09:59.496Z,11.94
2018-10-03T06:12:34.257Z,11.95
2018-10-03T06:15:09.052Z,11.97
2018-10-03T06:17:44.056Z,12.03
2018-10-03T06:20:18.622Z,11.99
2018-10-03T06:22:53.516Z,12.06
2018-10-03T06:25:28.093Z,12.10
2018-10-03T06:28:03.105Z,12.01
2018-10-03T06:30:37.768Z,12.06
2018-10-03T06:33:12.384Z,12.06
2018-10-03T06:35:47.161Z,12.02
2018-10-03T06:38:21.616Z,12.16
2018-10-03T06:44:10.392Z,12.15
2018-10-03T06:46:46.891Z,12.15
2018-10-03T06:49:21.573Z,12.27
2018-10-03T06:51:56.357Z,12.47
2018-10-03T06:54:31.528Z,12.48
2018-10-03T06:57:06.356Z,12.61
2018-10-03T06:59:40.776Z,12.89
2018-10-03T07:02:15.170Z,12.64
2018-10-03T07:04:49.676Z,12.61
2018-10-03T07:07:24.408Z,12.53
2018-10-03T07:09:58.920Z,12.41
2018-10-03T07:12:33.449Z,12.52
2018-10-03T07:15:08.077Z,12.64
2018-10-03T07:17:42.725Z,12.73
2018-10-03T07:20:17.408Z,12.70
2018-10-03T07:22:52.177Z,12.47
2018-10-03T07:25:26.587Z,12.60
2018-10-03T07:28:01.604Z,13.46
2018-10-03T07:30:36.104Z,14.03
2018-10-03T07:33:10.637Z,14.33
2018-10-03T07:35:45.093Z,14.27
2018-10-03T07:38:19.950Z,14.47
2018-10-03T07:40:54.949Z,14.25
2018-10-03T07:43:29.325Z,14.39
2018-10-03T07:46:03.887Z,14.28
2018-10-03T07:48:38.836Z,14.77
2018-10-03T07:51:14.595Z,14.48
2018-10-03T07:53:51.432Z,14.66
2018-10-03T07:56:26.744Z,14.45
2018-10-03T07:59:01.949Z,13.81
2018-10-03T08:01:37.479Z,13.39
2018-10-03T08:04:12.154Z,13.68
2018-10-03T08:06:46.757Z,13.50
2018-10-03T08:09:21.296Z,13.70
2018-10-03T08:11:55.736Z,13.78
2018-10-03T08:14:30.381Z,13.92
2018-10-03T08:17:04.911Z,13.84
2018-10-03T08:19:39.345Z,13.81
2018-10-03T08:22:13.821Z,13.90
2018-10-03T08:24:48.952Z,14.05
2018-10-03T08:27:23.856Z,14.07
2018-10-03T08:30:09.221Z,14.06
2018-10-03T08:32:43.790Z,14.15
2018-10-03T08:35:18.331Z,14.27
2018-10-03T08:37:52.969Z,14.85
2018-10-03T08:40:45.935Z,14.58
2018-10-03T08:43:39.408Z,15.07
2018-10-03T08:46:14.033Z,15.26
2018-10-03T08:48:48.457Z,15.25
2018-10-03T08:51:23.013Z,15.02
2018-10-03T08:53:58.338Z,15.56
2018-10-03T08:59:31.959Z,16.01
2018-10-03T09:02:06.804Z,15.91
2018-10-03T09:04:41.754Z,16.10
2018-10-03T09:07:16.753Z,15.52
2018-10-03T09:09:51.357Z,15.61
2018-10-03T09:15:50.049Z,15.77
2018-10-03T09:18:24.560Z,15.76
2018-10-03T09:20:59.913Z,16.10
2018-10-03T09:23:34.676Z,15.69
2018-10-03T09:26:10.524Z,15.97
2018-10-03T09:28:57.558Z,15.86
2018-10-03T09:34:40.959Z,15.20
2018-10-03T09:37:19.770Z,15.23
2018-10-03T09:39:54.953Z,15.67
2018-10-03T09:42:29.793Z,15.44
2018-10-03T09:45:17.779Z,15.37
2018-10-03T09:48:06.560Z,14.95
2018-10-03T09:50:42.547Z,14.96
2018-10-03T09:53:17.992Z,14.90
2018-10-03T09:55:52.520Z,15.34
2018-10-03T09:58:27.041Z,15.44
2018-10-03T10:01:06.997Z,15.48
2018-10-03T10:03:41.648Z,15.65
2018-10-03T10:06:17.124Z,15.61
2018-10-03T10:08:51.708Z,15.81
2018-10-03T10:11:28.527Z,16.13
2018-10-03T10:14:11.272Z,16.27
2018-10-03T10:16:50.963Z,16.15
2018-10-03T10:19:25.503Z,15.67
2018-10-03T10:22:18.912Z,15.33
2018-10-03T10:24:55.216Z,15.18
2018-10-03T10:27:29.841Z,15.74
2018-10-03T10:30:04.431Z,15.94
2018-10-03T10:32:39.994Z,16.04
2018-10-03T10:35:15.295Z,16.53
2018-10-03T10:41:07.931Z,16.12
2018-10-03T10:43:42.822Z,16.18
2018-10-03T10:46:17.533Z,16.21
2018-10-03T10:49:10.122Z,16.39
2018-10-03T10:51:44.804Z,16.26
2018-10-03T10:54:39.208Z,16.14
2018-10-03T10:57:20.324Z,16.71
2018-10-03T10:59:54.742Z,16.71
2018-10-03T11:02:29.429Z,16.49
2018-10-03T11:05:04.308Z,16.57
2018-10-03T11:07:52.542Z,16.86
2018-10-03T11:10:27.160Z,16.75
2018-10-03T11:13:01.672Z,16.59
2018-10-03T11:15:36.471Z,16.48
2018-10-03T11:18:10.878Z,16.37
2018-10-03T11:20:45.306Z,16.43
2018-10-03T11:23:19.786Z,16.84
2018-10-03T11:25:54.422Z,16.83
2018-10-03T11:28:28.874Z,16.95
2018-10-03T11:31:03.286Z,16.71
2018-10-03T11:33:37.701Z,16.37
2018-10-03T11:36:12.940Z,16.56
2018-10-03T11:39:00.664Z,15.93
2018-10-03T11:41:35.483Z,16.08
2018-10-03T11:44:09.801Z,15.67
2018-10-03T11:46:44.458Z,15.86
2018-10-03T11:49:19.197Z,15.44
2018-10-03T11:51:53.887Z,15.50
2018-10-03T11:54:44.969Z,16.12
2018-10-03T11:57:19.418Z,16.46
2018-10-03T11:59:53.908Z,16.31
2018-10-03T12:02:28.529Z,16.36
2018-10-03T12:05:03.071Z,16.35
2018-10-03T12:07:37.426Z,16.48
2018-10-03T12:10:12.153Z,15.80
2018-10-03T12:12:46.697Z,15.87
2018-10-03T12:15:21.212Z,15.97
2018-10-03T12:17:55.800Z,15.92
2018-10-03T12:20:30.306Z,15.41
2018-10-03T12:23:04.817Z,15.34
2018-10-03T12:25:39.400Z,15.71
2018-10-03T12:28:13.809Z,15.83
2018-10-03T12:30:48.328Z,15.84
2018-10-03T12:33:23.077Z,15.73
2018-10-03T12:35:57.581Z,16.05
2018-10-03T12:38:32.524Z,16.38
2018-10-03T12:41:07.145Z,16.41
2018-10-03T12:43:41.717Z,15.97
2018-10-03T12:46:16.400Z,16.61
2018-10-03T12:48:51.056Z,16.92
2018-10-03T12:51:25.807Z,16.69
2018-10-03T12:54:00.389Z,16.81
2018-10-03T12:56:35.159Z,16.83
2018-10-03T12:59:09.725Z,16.54
2018-10-03T13:01:44.383Z,16.03
2018-10-03T13:04:33.478Z,15.67
2018-10-03T13:07:07.904Z,15.89
2018-10-03T13:09:42.601Z,15.62
2018-10-03T13:12:17.032Z,15.41
2018-10-03T13:14:51.475Z,15.49
2018-10-03T13:17:26.050Z,15.56
2018-10-03T13:20:00.705Z,15.65
2018-10-03T13:22:35.334Z,15.76
2018-10-03T13:25:09.985Z,15.83
2018-10-03T13:27:44.604Z,15.96
2018-10-03T13:30:19.057Z,16.05
2018-10-03T13:32:53.633Z,16.18
2018-10-03T13:35:28.716Z,16.08
2018-10-03T13:38:04.152Z,16.14
2018-10-03T13:40:38.691Z,15.98
2018-10-03T13:43:13.569Z,16.38
2018-10-03T13:45:47.988Z,16.21
2018-10-03T13:48:22.457Z,16.05
2018-10-03T13:50:57.188Z,15.64
2018-10-03T13:53:31.776Z,15.77
2018-10-03T13:56:06.331Z,15.64
2018-10-03T13:58:40.845Z,15.42
2018-10-03T14:01:15.414Z,15.42
2018-10-03T14:03:49.844Z,15.71
2018-10-03T14:06:24.418Z,15.75
2018-10-03T14:08:59.540Z,15.75
2018-10-03T14:11:34.017Z,15.69
2018-10-03T14:14:09.172Z,15.76
2018-10-03T14:16:44.652Z,15.70
2018-10-03T14:19:19.044Z,15.67
2018-10-03T14:21:53.833Z,15.67
2018-10-03T14:24:28.583Z,15.59
2018-10-03T14:27:03.145Z,15.56
2018-10-03T14:29:38.396Z,15.69
2018-10-03T14:32:12.976Z,15.81
2018-10-03T14:34:47.679Z,15.98
2018-10-03T14:37:28.049Z,16.14
2018-10-03T14:40:02.547Z,16.22
2018-10-03T14:42:37.153Z,16.26
2018-10-03T14:45:23.584Z,16.20
2018-10-03T14:47:58.164Z,16.31
2018-10-03T14:50:32.750Z,16.35
2018-10-03T14:53:07.385Z,16.35
2018-10-03T14:55:46.970Z,16.30
2018-10-03T14:58:22.532Z,16.14
2018-10-03T15:01:00.979Z,16.07
2018-10-03T15:03:35.427Z,15.81
2018-10-03T15:06:09.898Z,16.05
2018-10-03T15:08:44.894Z,15.95
2018-10-03T15:11:19.432Z,15.86
2018-10-03T15:13:53.994Z,15.83
2018-10-03T15:16:29.773Z,15.76
2018-10-03T15:19:05.713Z,15.72
2018-10-03T15:21:40.800Z,15.77
2018-10-03T15:24:17.796Z,15.47
2018-10-03T15:26:52.373Z,15.53
2018-10-03T15:29:37.575Z,15.48
2018-10-03T15:32:12.953Z,15.43
2018-10-03T15:35:01.931Z,15.53
2018-10-03T15:37:36.801Z,15.50
2018-10-03T15:40:11.710Z,15.48
2018-10-03T15:42:46.365Z,15.29
2018-10-03T15:48:22.395Z,15.26
2018-10-03T15:50:56.993Z,15.25
2018-10-03T15:53:31.420Z,15.03
2018-10-03T15:56:06.192Z,15.07
2018-10-03T15:58:57.145Z,15.01
2018-10-03T16:01:49.963Z,14.93
2018-10-03T16:07:23.982Z,14.71
2018-10-03T16:09:59.998Z,14.60
2018-10-03T16:12:34.622Z,14.49
2018-10-03T16:15:09.764Z,14.33
2018-10-03T16:17:55.240Z,14.21
2018-10-03T16:20:29.985Z,14.21
2018-10-03T16:23:04.873Z,14.17
2018-10-03T16:25:40.453Z,14.24
2018-10-03T16:28:15.108Z,14.20
2018-10-03T16:30:55.458Z,14.20
2018-10-03T16:33:30.133Z,14.16
2018-10-03T16:36:04.889Z,14.19
2018-10-03T16:38:39.605Z,14.21
2018-10-03T16:41:14.465Z,14.22
2018-10-03T16:43:49.109Z,14.20
2018-10-03T16:46:23.853Z,14.08
2018-10-03T16:48:58.512Z,13.96
2018-10-03T16:51:33.116Z,13.83
2018-10-03T16:54:07.965Z,13.66
2018-10-03T16:56:42.568Z,13.54
2018-10-03T16:59:17.322Z,13.49
2018-10-03T17:01:51.964Z,13.38
2018-10-03T17:04:26.609Z,13.26
2018-10-03T17:07:01.727Z,13.27
2018-10-03T17:09:36.176Z,13.34
2018-10-03T17:12:10.673Z,13.25
2018-10-03T17:14:45.287Z,13.19
2018-10-03T17:17:20.513Z,13.18
2018-10-03T17:19:55.100Z,13.16
2018-10-03T17:22:29.557Z,13.06
2018-10-03T17:25:04.229Z,12.97
2018-10-03T17:27:39.061Z,12.85
2018-10-03T17:30:13.614Z,12.82
2018-10-03T17:32:48.149Z,12.78
2018-10-03T17:35:23.537Z,12.67
2018-10-03T17:37:58.237Z,12.61
2018-10-03T17:40:32.833Z,12.50
2018-10-03T17:43:07.388Z,12.43
2018-10-03T17:45:41.965Z,12.32
2018-10-03T17:48:16.492Z,12.28
2018-10-03T17:50:51.053Z,12.27
2018-10-03T17:53:25.465Z,12.24
2018-10-03T17:55:59.879Z,12.24
2018-10-03T17:58:34.473Z,12.16
2018-10-03T18:01:09.092Z,12.02
2018-10-03T18:03:43.673Z,11.98
2018-10-03T18:06:18.174Z,11.97
2018-10-03T18:08:52.785Z,11.95
2018-10-03T18:11:27.207Z,11.95
2018-10-03T18:14:01.959Z,11.92
2018-10-03T18:16:36.684Z,11.95
2018-10-03T18:19:11.116Z,11.95
2018-10-03T18:21:45.592Z,11.92
2018-10-03T18:24:33.432Z,11.83
2018-10-03T18:27:08.020Z,11.66
2018-10-03T18:29:43.831Z,11.65
2018-10-03T18:32:18.708Z,11.56
2018-10-03T18:34:53.393Z,11.50
2018-10-03T18:37:28.253Z,11.50
2018-10-03T18:40:03.156Z,11.55
2018-10-03T18:42:38.124Z,11.47
2018-10-03T18:45:12.949Z,11.49
2018-10-03T18:47:47.357Z,11.45
2018-10-03T18:56:18.071Z,11.18
2018-10-03T18:58:52.377Z,11.10
2018-10-03T19:01:26.879Z,11.11
2018-10-03T19:04:01.258Z,11.07
2018-10-03T19:06:35.735Z,11.04
2018-10-03T19:09:10.476Z,10.94
2018-10-03T19:11:44.735Z,10.94
2018-10-03T19:14:19.123Z,10.89
2018-10-03T19:16:53.525Z,10.92
2018-10-03T19:19:27.875Z,10.88
2018-10-03T19:22:02.464Z,10.83
2018-10-03T19:24:37.060Z,10.83
2018-10-03T19:27:11.545Z,10.79
2018-10-03T19:29:46.083Z,10.75
2018-10-03T19:32:20.625Z,10.81
2018-10-03T19:37:54.282Z,10.77
2018-10-03T19:40:28.858Z,10.75
2018-10-03T19:43:03.437Z,10.75
2018-10-03T19:45:37.944Z,10.76
2018-10-03T19:48:12.673Z,10.75
2018-10-03T19:50:47.231Z,10.77
2018-10-03T19:53:27.220Z,10.71
2018-10-03T19:56:02.829Z,10.71
2018-10-03T19:58:37.555Z,10.65
2018-10-03T20:01:12.084Z,10.64
2018-10-03T20:03:46.899Z,10.52
2018-10-03T20:06:21.416Z,10.51
2018-10-03T20:08:56.043Z,10.53
2018-10-03T20:11:30.710Z,10.48
2018-10-03T20:14:05.393Z,10.40
2018-10-03T20:16:40.065Z,10.40
2018-10-03T20:19:14.878Z,10.39
2018-10-03T20:21:49.469Z,10.34
2018-10-03T20:24:23.930Z,10.33
2018-10-03T20:26:58.603Z,10.26
2018-10-03T20:29:33.376Z,10.30
2018-10-03T20:32:08.168Z,10.28
2018-10-03T20:34:42.699Z,10.20
2018-10-03T20:37:17.391Z,10.18
2018-10-03T20:39:52.317Z,10.13
2018-10-03T20:42:26.987Z,10.14
2018-10-03T20:45:01.797Z,10.07
2018-10-03T20:47:36.593Z,10.10
2018-10-03T20:50:11.201Z,10.07
2018-10-03T20:52:45.797Z,10.04
2018-10-03T20:55:20.646Z,10.07
2018-10-03T20:57:55.232Z,10.07
2018-10-03T21:00:29.721Z,10.04
2018-10-03T21:03:04.352Z,10.01
2018-10-03T21:05:39.332Z,9.99
2018-10-03T21:08:14.000Z,9.94
2018-10-03T21:10:48.669Z,9.98
2018-10-03T21:13:23.549Z,9.96
2018-10-03T21:15:58.279Z,9.91
2018-10-03T21:18:32.917Z,9.87
2018-10-03T21:21:07.460Z,9.82
2018-10-03T21:23:42.509Z,9.81
2018-10-03T21:26:17.496Z,9.77
2018-10-03T21:28:52.592Z,9.74
2018-10-03T21:31:27.575Z,9.75
2018-10-03T21:34:02.282Z,9.72
2018-10-03T21:36:37.777Z,9.68
2018-10-03T21:39:12.355Z,9.67
2018-10-03T21:41:49.217Z,9.65
2018-10-03T21:44:44.076Z,9.68
2018-10-03T21:47:20.441Z,9.69
2018-10-03T21:49:55.736Z,9.68
2018-10-03T21:52:30.188Z,9.69
2018-10-03T21:55:04.934Z,9.65
2018-10-03T21:57:40.149Z,9.63
2018-10-03T22:00:14.918Z,9.61
2018-10-03T22:02:49.372Z,9.60
2018-10-03T22:05:24.070Z,9.59
2018-10-03T22:07:58.707Z,9.58
2018-10-03T22:10:33.280Z,9.54
2018-10-03T22:13:07.959Z,9.49
2018-10-03T22:15:42.656Z,9.45
2018-10-03T22:18:17.621Z,9.43
2018-10-03T22:20:53.534Z,9.38
2018-10-03T22:23:28.330Z,9.33
2018-10-03T22:26:04.100Z,9.28
2018-10-03T22:28:38.809Z,9.29
2018-10-03T22:31:13.812Z,9.29
2018-10-03T22:33:49.928Z,9.31
2018-10-03T22:36:26.093Z,9.24
2018-10-03T22:39:01.128Z,9.20
2018-10-03T22:41:35.831Z,9.17
2018-10-03T22:44:10.548Z,9.19
2018-10-03T22:46:45.380Z,9.18
2018-10-03T22:49:19.880Z,9.17
2018-10-03T22:51:54.432Z,9.16
2018-10-03T22:54:29.157Z,9.16
2018-10-03T22:57:04.565Z,9.13
2018-10-03T22:59:39.896Z,9.16
2018-10-03T23:02:14.600Z,9.14
2018-10-03T23:04:49.313Z,9.08
2018-10-03T23:07:23.847Z,9.10
2018-10-03T23:09:58.272Z,9.14
2018-10-03T23:12:32.755Z,9.12
2018-10-03T23:15:07.172Z,9.15
2018-10-03T23:17:41.784Z,9.19
2018-10-03T23:20:16.397Z,9.16
2018-10-03T23:22:50.972Z,9.06
2018-10-03T23:25:25.357Z,9.08
2018-10-03T23:27:59.818Z,9.08
2018-10-03T23:30:44.148Z,9.10
2018-10-03T23:33:19.052Z,9.11
2018-10-03T23:35:53.591Z,9.10
2018-10-03T23:38:28.493Z,9.02
2018-10-03T23:41:03.033Z,9.06
2018-10-03T23:46:50.314Z,9.17
2018-10-03T23:49:27.536Z,9.10
2018-10-03T23:55:11.999Z,9.02
2018-10-03T23:57:47.983Z,9.09
